AREA preflight bulletin
Updated "live" 23 May 2019, 12:47

back to the map




METAR og TAF


NARSARSUAQ
  AKTUEL BGBW 231150Z 05026KT 9999 FEW080 SCT140 BKN160 14/M05 Q1016 RMK 1AC 3AS 5AC =
  TAF 9 timer BGBW 231127Z 2312/2321 07020KT 9999 BKN120 TEMPO 2312/2321 07025G35KT=

QAQORTOQ
  AKTUEL BGJH 231220Z AUTO VRB08G18KT //// ///////// 12/M03 Q1016=

PAAMIUT
  SPECI(AL) BGPT 231223Z 31008KT 9999 1400N VCFG FEW001 03/02 Q1018 RMK 1ST =
  AKTUEL BGPT 231150Z 32006KT 9999 FEW150 SCT200 05/02 Q1018 RMK 1AC 3CI =
  TAF 9 timer BGPT 231200Z 2312/2319 35005KT 9999 SCT200 PROB40 2312/2318 0800 BCFG BKN004=

NARSAQ
  AKTUEL BGNS 231220Z AUTO 01003KT //// ///////// 10/M01 Q1016=

NANORTALIK
  AKTUEL BGNN 231220Z AUTO 02004KT //// ///////// 11/M02 Q1015=

NUUK
  AKTUEL BGGH 231150Z 32004KT 290V360 9999 BCFG SCT190 04/00 Q1019=
  TAF 9 timer BGGH 231127Z 2312/2321 34005KT 9999 FEW006=

KANGERLUSSUAQ
  AKTUEL BGSF 231220Z AUTO 08007KT 040V120 9999NDV NCD 14/M03 Q1017=
  TAF 24 timer BGSF 231100Z 2312/2418 06008KT 9999 FEW060 BECMG 2312/2314 24010KT BECMG 2404/2406 06010KT=


SIGMETS:

SONDRESTROM FIR
  SIGMET BGGL SIGMET 3 VALID 230830/231230 BGSF- BGGL NUUK FIR SEV TURB FCST AT 0830Z WI N5954 W04504 - N6049 W04409 - N6049 W04231 - N5932 W04320 - N5954 W04504 SFC/FL110 STNR NC=

SONDRESTROM FIR
  SIGMET BGGL SIGMET 4 VALID 231230/231630 BGSF- BGGL NUUK FIR SEV TURB FCST AT 1230Z WI N5954 W04504 - N6049 W04409 - N6049 W04231 - N5932 W04320 - N5954 W04504 SFC/FL110 STNR NC=

NOTAM/SNOWTAM for operationel use has to be confirmed with the
nearest AIS Briefing Office prior to a flight.

ICAO
BGBW (NARSARSUAQ)

FIR
BGGL

Notam_id:
BGA0130/19

valid from:
1903131747

E) SEA RESCUE SERVICE NOT AVAILABLE DUE TO MAINTENANCE.

valid to:
1905311900




ICAO
BGBW (NARSARSUAQ)

FIR
BGGL

Notam_id:
BGA0228/19

valid from:
1905101400

E) 4 TWY LIGHTS U/S.

valid to:
1906141900




ICAO
BGBW (NARSARSUAQ)

FIR
BGGL

Notam_id:
BGA0085/19

valid from:
1902071308

E) USE OF INSTRUMENT APPROACH PROCEDURE RNAV (GNSS) Y RWY 06 FOR AIRCRAFT CATEGORY C SUSPENDED.

valid to:
1906192359EST


Replacing:
BGA0084/19

ICAO
BGPT (PAAMIUT)

FIR
BGGL

Notam_id:
BGB0241/19

valid from:
1904081820

E) AWOS TEMP MEASUREMENT EQPT OUT OF SERVICE. TT/DP ON AUTOMETAR NOT RELIABLE.

valid to:
1905291500EST




ICAO
BGGL (SONDRESTROM FIR)

FIR
BGGL

Notam_id:
BGA0214/19

valid from:
1905010455

E) CHECKLIST YEAR=2017 0269 YEAR=2018 0199 YEAR=2019 0085 0125 0130 0144 0207 0213 LATEST PUBLICATIONS AIP AIRAC AMDT IFR 004/2019 EFFECTIVE DATE 20 JUN 19 AIP AMDT IFR 003/2018 EFFECTIVE DATE 15 MAR 18 AIP SUP IFR 006/2018 EFFECTIVE DATE 18 JUN 18 AIC IFR A001/2019 EFFECTIVE DATE 17 JAN 19

valid to:
1906010455EST


Replacing:
BGA0165/19

ICAO
BGGL (SONDRESTROM FIR)

FIR
BGGL

Notam_id:
BGB0309/19

valid from:
1905010456

E) CHECKLIST YEAR=2017 0740 0930 YEAR=2018 0806 0811 0928 0958 YEAR=2019 0005 0070 0112 0145 0148 0149 0150 0195 0207 0211 0214 0241 0243 0259 0283 0284 0285 0286 0289 0297 0298 0299 0303 0304 0305 0306 0307 0308 LATEST PUBLICATIONS AIP AIRAC AMDT IFR 004/2019 EFFECTIVE DATE 20 JUN 19 AIP AMDT IFR 003/2018 EFFECTIVE DATE 15 MAR 18 AIP SUP IFR 006/2018 EFFECTIVE DATE 18 JUN 18 AIC IFR A001/2019 EFFECTIVE DATE 17 JAN 19

valid to:
1906010456EST


Replacing:
BGB0206/19

ICAO
BGGL (SONDRESTROM FIR)

FIR
BGGL

Notam_id:
BGC0048/19

valid from:
1905010456

E) CHECKLIST YEAR=2018 0079 0081 YEAR=2019 0014 0015 0016 0017 0036 0037 0038 0039 0040 0041 0042 0045 0046 0047 LATEST PUBLICATIONS AIP AIRAC AMDT IFR 004/2019 EFFECTIVE DATE 20 JUN 19 AIP AMDT IFR 003/2018 EFFECTIVE DATE 15 MAR 18 AIP SUP IFR 006/2018 EFFECTIVE DATE 18 JUN 18 AIC IFR A001/2019 EFFECTIVE DATE 17 JAN 19

valid to:
1906010456EST


Replacing:
BGC0031/19

ICAO
BGGL (SONDRESTROM FIR)

FIR
BGGL

Notam_id:
BGA0199/18

valid from:
1805310935

E) GREENLAND AND ADJACENT WATERS ARE CONSIDERED HOSTILE AREAS BY THE CIVIL AVIATION AUTHORITY (TBST). THREE MAJOR REASONS CONTRIBUTE TO DEFINING THE AREA AS HOSTILE: A SAFE FORCED LANDING CANNOT BE ACCOMPLISHED BECAUSE THE SURFACE IS INADEQUATE. THE HELICOPTER OCCUPANTS CANNOT BE ADEQUATELY PROTECTED FROM THE ELEMENTS. SEARCH AND RESCUE RESPONSE/CAPABILITY ARE NOT PROVIDED CONSISTENT WITH ANTICIPATED EXPOSURE.

valid to:
PERM




ICAO
BGGH (NUUK)

FIR
BGGL

Notam_id:
BGB0070/19

valid from:
1901311908

E) BGGH AFIS FREQ 119.100 MHZ NO COVERAGE IN SECTOR BETWEEN 060 DEG MAG AND 210 DEG MAG BELOW FL100.

valid to:
1907311900EST


Replacing:
BGB0786/18

ICAO
BGGH (NUUK)

FIR
BGGL

Notam_id:
BGB0930/17

valid from:
1712181907

E) ERROR IN CHART FOR RNAV (GNSS) APPROACH RWY 23. WITH REF AIP GREENLAND AD 2-BGGH RNAV (GNSS) RWY 23-1. NEW OCA(H) LNAV/VNAV CLIMB 2.5 PERCENT CAT A TO READ 1310 (1029) INSTEAD OF 1230. NEW OCA(H) LNAV/VNAV CLIMB 2.5 PERCENT CAT B TO READ 1340 (1059) INSTEAD OF 1250. NEW OCA(H) LNAV/VNAV CLIMB 5.0 PERCENT CAT A TO READ 1300 (1019) INSTEAD OF 1070. NEW OCA(H) LNAV/VNAV CLIMB 5.0 PERCENT CAT B TO READ 1320 (1039) INSTEAD OF 1110. NEW OCA(H) LNAV CLIMB 5.0 PERCENT CAT A TO READ 1150 (869) IN-STEAD OF 1130. NEW OCA(H) LNAV CLIMB 5.0 PERCENT CAT B TO READ 1240 (959) INSTEAD OF 1230.

valid to:
PERM




ICAO
BGGH (NUUK)

FIR
BGGL

Notam_id:
BGB0339/19

valid from:
1905071649

E) STAND 3 AND 4 CAN NOT RUN 2 HEATERS SIMULTANEOSLY WHILE RUNNING 2 GPU'S.

valid to:
1906071700EST


Replacing:
BGB0308/19

ICAO
BGGH (NUUK)

FIR
BGGL

Notam_id:
BGB0358/19

valid from:
1905151005

E) FIREFIGHTING AND RESCUE LIMITED TO: CAT5 PPR 3 HR BEFORE LANDING OR DEPARTURE FOR ALL TRAFFIC OVER 10 TONS AND ABOVE 19 PASSENGERS, EXCEPT SCHEDULED TRAFFIC.

valid to:
PERM


Replacing:
BGB0350/19


Copyright Naviair   2003-2016